sensor_id;sensor_type;location;lat;lon;timestamp;pressure;altitude;pressure_sealevel;temperature;humidity
54465;BME280;40374;49.480;20.016;2022-12-07T00:01:36;94393.19;;;0.96;100.00
54465;BME280;40374;49.480;20.016;2022-12-07T00:04:06;94408.75;;;0.93;100.00
54465;BME280;40374;49.480;20.016;2022-12-07T00:06:39;94403.53;;;1.10;100.00
54465;BME280;40374;49.480;20.016;2022-12-07T00:09:11;94403.66;;;1.03;100.00
54465;BME280;40374;49.480;20.016;2022-12-07T00:11:38;94405.53;;;0.91;100.00
54465;BME280;40374;49.480;20.016;2022-12-07T00:14:09;94400.19;;;1.14;100.00
54465;BME280;40374;49.480;20.016;2022-12-07T00:16:37;94393.09;;;0.91;100.00
54465;BME280;40374;49.480;20.016;2022-12-07T00:19:05;94398.72;;;0.95;100.00
54465;BME280;40374;49.480;20.016;2022-12-07T00:21:34;94393.75;;;1.10;100.00
54465;BME280;40374;49.480;20.016;2022-12-07T00:24:03;94392.03;;;1.04;100.00
54465;BME280;40374;49.480;20.016;2022-12-07T00:26:37;94399.59;;;1.12;100.00
54465;BME280;40374;49.480;20.016;2022-12-07T00:29:07;94397.19;;;1.11;100.00
54465;BME280;40374;49.480;20.016;2022-12-07T00:31:36;94402.69;;;1.21;100.00
54465;BME280;40374;49.480;20.016;2022-12-07T00:34:18;94394.22;;;1.36;100.00
54465;BME280;40374;49.480;20.016;2022-12-07T00:36:46;94380.63;;;1.04;100.00
54465;BME280;40374;49.480;20.016;2022-12-07T00:39:14;94396.97;;;1.12;100.00
54465;BME280;40374;49.480;20.016;2022-12-07T00:41:41;94397.22;;;0.99;100.00
54465;BME280;40374;49.480;20.016;2022-12-07T00:44:09;94380.63;;;1.04;100.00
54465;BME280;40374;49.480;20.016;2022-12-07T00:46:36;94386.28;;;1.07;100.00
54465;BME280;40374;49.480;20.016;2022-12-07T00:49:03;94390.88;;;1.00;100.00
54465;BME280;40374;49.480;20.016;2022-12-07T00:51:31;94386.75;;;0.92;100.00
54465;BME280;40374;49.480;20.016;2022-12-07T00:53:58;94391.16;;;0.87;100.00
54465;BME280;40374;49.480;20.016;2022-12-07T00:56:28;94395.09;;;1.13;100.00
54465;BME280;40374;49.480;20.016;2022-12-07T00:59:00;94396.03;;;1.07;100.00
54465;BME280;40374;49.480;20.016;2022-12-07T01:01:30;94398.16;;;0.93;100.00
54465;BME280;40374;49.480;20.016;2022-12-07T01:03:59;94381.50;;;0.80;100.00
54465;BME280;40374;49.480;20.016;2022-12-07T01:06:29;94394.72;;;0.80;100.00
54465;BME280;40374;49.480;20.016;2022-12-07T01:08:56;94390.13;;;0.64;100.00
54465;BME280;40374;49.480;20.016;2022-12-07T01:11:26;94391.47;;;0.90;100.00
54465;BME280;40374;49.480;20.016;2022-12-07T01:13:55;94387.78;;;0.91;100.00
54465;BME280;40374;49.480;20.016;2022-12-07T01:16:25;94383.78;;;0.89;100.00
54465;BME280;40374;49.480;20.016;2022-12-07T01:18:54;94385.59;;;1.00;100.00
54465;BME280;40374;49.480;20.016;2022-12-07T01:21:27;94378.41;;;1.12;100.00
54465;BME280;40374;49.480;20.016;2022-12-07T01:23:56;94380.41;;;1.05;100.00
54465;BME280;40374;49.480;20.016;2022-12-07T01:26:25;94367.19;;;0.81;100.00
54465;BME280;40374;49.480;20.016;2022-12-07T01:28:53;94375.59;;;0.90;100.00
54465;BME280;40374;49.480;20.016;2022-12-07T01:31:24;94373.03;;;1.07;100.00
54465;BME280;40374;49.480;20.016;2022-12-07T01:33:54;94343.06;;;1.07;100.00
54465;BME280;40374;49.480;20.016;2022-12-07T01:39:09;94361.50;;;1.42;100.00
54465;BME280;40374;49.480;20.016;2022-12-07T01:41:39;94361.88;;;1.34;100.00
54465;BME280;40374;49.480;20.016;2022-12-07T01:44:25;94353.47;;;1.37;100.00
54465;BME280;40374;49.480;20.016;2022-12-07T01:46:55;94347.97;;;1.27;100.00
54465;BME280;40374;49.480;20.016;2022-12-07T01:49:36;94336.31;;;1.28;100.00
54465;BME280;40374;49.480;20.016;2022-12-07T01:52:24;94352.97;;;1.40;100.00
54465;BME280;40374;49.480;20.016;2022-12-07T01:54:57;94353.50;;;1.25;100.00
54465;BME280;40374;49.480;20.016;2022-12-07T01:57:27;94350.44;;;1.05;100.00
54465;BME280;40374;49.480;20.016;2022-12-07T01:59:55;94334.34;;;1.06;100.00
54465;BME280;40374;49.480;20.016;2022-12-07T02:02:27;94340.69;;;1.05;100.00
54465;BME280;40374;49.480;20.016;2022-12-07T02:04:59;94339.72;;;1.11;100.00
54465;BME280;40374;49.480;20.016;2022-12-07T02:07:27;94331.50;;;0.96;100.00
54465;BME280;40374;49.480;20.016;2022-12-07T02:09:55;94344.28;;;0.99;100.00
54465;BME280;40374;49.480;20.016;2022-12-07T02:12:24;94350.06;;;1.25;100.00
54465;BME280;40374;49.480;20.016;2022-12-07T02:14:52;94348.91;;;1.20;100.00
54465;BME280;40374;49.480;20.016;2022-12-07T02:17:31;94354.28;;;1.54;100.00
54465;BME280;40374;49.480;20.016;2022-12-07T02:20:23;94348.69;;;1.68;100.00
54465;BME280;40374;49.480;20.016;2022-12-07T02:29:25;94338.56;;;1.65;100.00
54465;BME280;40374;49.480;20.016;2022-12-07T02:32:00;94328.94;;;1.58;100.00
54465;BME280;40374;49.480;20.016;2022-12-07T02:40:34;94332.88;;;1.73;100.00
54465;BME280;40374;49.480;20.016;2022-12-07T02:43:14;94335.53;;;1.73;100.00
54465;BME280;40374;49.480;20.016;2022-12-07T02:45:44;94328.69;;;1.60;100.00
54465;BME280;40374;49.480;20.016;2022-12-07T02:48:15;94327.25;;;1.69;100.00
54465;BME280;40374;49.480;20.016;2022-12-07T02:50:52;94334.56;;;1.79;100.00
54465;BME280;40374;49.480;20.016;2022-12-07T02:56:07;94324.19;;;1.77;100.00
54465;BME280;40374;49.480;20.016;2022-12-07T03:10:09;94322.34;;;1.95;100.00
54465;BME280;40374;49.480;20.016;2022-12-07T03:13:04;94335.22;;;1.86;100.00
54465;BME280;40374;49.480;20.016;2022-12-07T03:15:43;94312.06;;;1.65;100.00
54465;BME280;40374;49.480;20.016;2022-12-07T03:18:16;94328.44;;;1.61;100.00
54465;BME280;40374;49.480;20.016;2022-12-07T03:20:46;94303.00;;;1.32;100.00
54465;BME280;40374;49.480;20.016;2022-12-07T03:23:17;94320.91;;;1.70;100.00
54465;BME280;40374;49.480;20.016;2022-12-07T03:25:50;94316.88;;;1.68;100.00
54465;BME280;40374;49.480;20.016;2022-12-07T03:28:31;94306.44;;;1.78;100.00
54465;BME280;40374;49.480;20.016;2022-12-07T03:31:01;94332.69;;;1.46;100.00
54465;BME280;40374;49.480;20.016;2022-12-07T03:33:41;94333.09;;;1.71;100.00
54465;BME280;40374;49.480;20.016;2022-12-07T03:36:17;94337.06;;;1.69;100.00
54465;BME280;40374;49.480;20.016;2022-12-07T03:38:58;94329.91;;;1.69;100.00
54465;BME280;40374;49.480;20.016;2022-12-07T03:41:31;94326.84;;;1.60;100.00
54465;BME280;40374;49.480;20.016;2022-12-07T03:44:00;94331.88;;;1.45;100.00
54465;BME280;40374;49.480;20.016;2022-12-07T03:49:27;94320.41;;;1.73;100.00
54465;BME280;40374;49.480;20.016;2022-12-07T03:52:08;94318.34;;;1.75;100.00
54465;BME280;40374;49.480;20.016;2022-12-07T03:54:52;94325.78;;;1.78;100.00
54465;BME280;40374;49.480;20.016;2022-12-07T03:57:22;94322.34;;;1.61;100.00
54465;BME280;40374;49.480;20.016;2022-12-07T03:59:52;94326.72;;;1.55;100.00
54465;BME280;40374;49.480;20.016;2022-12-07T04:02:21;94315.75;;;1.63;100.00
54465;BME280;40374;49.480;20.016;2022-12-07T04:04:50;94313.34;;;1.45;100.00
54465;BME280;40374;49.480;20.016;2022-12-07T04:07:18;94320.06;;;1.53;100.00
54465;BME280;40374;49.480;20.016;2022-12-07T04:09:45;94316.00;;;1.45;100.00
54465;BME280;40374;49.480;20.016;2022-12-07T04:12:12;94320.28;;;1.34;100.00
54465;BME280;40374;49.480;20.016;2022-12-07T04:14:40;94310.56;;;1.40;100.00
54465;BME280;40374;49.480;20.016;2022-12-07T04:17:08;94304.34;;;1.63;100.00
54465;BME280;40374;49.480;20.016;2022-12-07T04:19:35;94298.97;;;1.41;100.00
54465;BME280;40374;49.480;20.016;2022-12-07T04:22:04;94303.88;;;1.49;100.00
54465;BME280;40374;49.480;20.016;2022-12-07T04:24:32;94303.19;;;1.42;100.00
54465;BME280;40374;49.480;20.016;2022-12-07T04:27:00;94298.84;;;1.36;100.00
54465;BME280;40374;49.480;20.016;2022-12-07T04:29:27;94303.97;;;1.26;100.00
54465;BME280;40374;49.480;20.016;2022-12-07T04:31:54;94293.94;;;1.28;100.00
54465;BME280;40374;49.480;20.016;2022-12-07T04:34:22;94289.19;;;1.30;100.00
54465;BME280;40374;49.480;20.016;2022-12-07T04:36:49;94283.75;;;1.36;100.00
54465;BME280;40374;49.480;20.016;2022-12-07T04:39:23;94282.50;;;1.56;100.00
54465;BME280;40374;49.480;20.016;2022-12-07T04:41:51;94288.09;;;1.42;100.00
54465;BME280;40374;49.480;20.016;2022-12-07T04:44:19;94288.19;;;1.48;100.00
54465;BME280;40374;49.480;20.016;2022-12-07T04:46:48;94284.91;;;1.57;100.00
54465;BME280;40374;49.480;20.016;2022-12-07T04:49:16;94293.41;;;1.42;100.00
54465;BME280;40374;49.480;20.016;2022-12-07T04:51:44;94296.94;;;1.48;100.00
54465;BME280;40374;49.480;20.016;2022-12-07T04:54:13;94284.56;;;1.37;100.00
54465;BME280;40374;49.480;20.016;2022-12-07T04:56:40;94287.22;;;1.37;100.00
54465;BME280;40374;49.480;20.016;2022-12-07T04:59:09;94293.84;;;1.51;100.00
54465;BME280;40374;49.480;20.016;2022-12-07T05:01:36;94288.75;;;1.33;100.00
54465;BME280;40374;49.480;20.016;2022-12-07T05:04:04;94277.44;;;1.37;100.00
54465;BME280;40374;49.480;20.016;2022-12-07T05:06:32;94280.97;;;1.43;100.00
54465;BME280;40374;49.480;20.016;2022-12-07T05:09:01;94272.34;;;1.36;100.00
54465;BME280;40374;49.480;20.016;2022-12-07T05:11:29;94274.44;;;1.34;100.00
54465;BME280;40374;49.480;20.016;2022-12-07T05:16:32;94276.81;;;1.47;100.00
54465;BME280;40374;49.480;20.016;2022-12-07T05:19:00;94273.50;;;1.57;100.00
54465;BME280;40374;49.480;20.016;2022-12-07T05:21:27;94280.72;;;1.61;100.00
54465;BME280;40374;49.480;20.016;2022-12-07T05:23:55;94282.19;;;1.52;100.00
54465;BME280;40374;49.480;20.016;2022-12-07T05:26:22;94281.78;;;1.60;100.00
54465;BME280;40374;49.480;20.016;2022-12-07T05:28:51;94282.19;;;1.86;100.00
54465;BME280;40374;49.480;20.016;2022-12-07T05:31:19;94279.63;;;1.74;100.00
54465;BME280;40374;49.480;20.016;2022-12-07T05:33:47;94294.72;;;1.74;100.00
54465;BME280;40374;49.480;20.016;2022-12-07T05:36:14;94277.38;;;1.66;100.00
54465;BME280;40374;49.480;20.016;2022-12-07T05:38:42;94273.84;;;1.60;100.00
54465;BME280;40374;49.480;20.016;2022-12-07T05:41:13;94283.47;;;1.83;100.00
54465;BME280;40374;49.480;20.016;2022-12-07T05:44:01;94298.00;;;1.64;100.00
54465;BME280;40374;49.480;20.016;2022-12-07T05:46:28;94284.28;;;1.67;100.00
54465;BME280;40374;49.480;20.016;2022-12-07T05:48:55;94271.75;;;1.46;100.00
54465;BME280;40374;49.480;20.016;2022-12-07T05:51:23;94287.47;;;1.52;100.00
54465;BME280;40374;49.480;20.016;2022-12-07T05:53:50;94289.16;;;1.58;100.00
54465;BME280;40374;49.480;20.016;2022-12-07T05:56:17;94292.53;;;1.54;100.00
54465;BME280;40374;49.480;20.016;2022-12-07T05:58:45;94286.97;;;1.55;100.00
54465;BME280;40374;49.480;20.016;2022-12-07T06:01:31;94282.34;;;1.62;100.00
54465;BME280;40374;49.480;20.016;2022-12-07T06:03:58;94282.91;;;1.48;100.00
54465;BME280;40374;49.480;20.016;2022-12-07T06:06:26;94282.91;;;1.48;100.00
54465;BME280;40374;49.480;20.016;2022-12-07T06:08:53;94291.31;;;1.61;100.00
54465;BME280;40374;49.480;20.016;2022-12-07T06:11:20;94293.19;;;1.61;100.00
54465;BME280;40374;49.480;20.016;2022-12-07T06:14:07;94293.75;;;1.63;100.00
54465;BME280;40374;49.480;20.016;2022-12-07T06:16:34;94287.31;;;1.59;100.00
54465;BME280;40374;49.480;20.016;2022-12-07T06:19:01;94305.88;;;1.76;100.00
54465;BME280;40374;49.480;20.016;2022-12-07T06:21:29;94291.03;;;1.75;100.00
54465;BME280;40374;49.480;20.016;2022-12-07T06:23:56;94302.91;;;1.89;100.00
54465;BME280;40374;49.480;20.016;2022-12-07T06:26:23;94309.03;;;1.90;100.00
54465;BME280;40374;49.480;20.016;2022-12-07T06:28:51;94306.84;;;1.87;100.00
54465;BME280;40374;49.480;20.016;2022-12-07T06:31:18;94302.19;;;1.94;100.00
54465;BME280;40374;49.480;20.016;2022-12-07T06:33:46;94300.34;;;1.94;100.00
54465;BME280;40374;49.480;20.016;2022-12-07T06:36:13;94287.31;;;1.93;100.00
54465;BME280;40374;49.480;20.016;2022-12-07T06:38:41;94302.25;;;1.82;100.00
54465;BME280;40374;49.480;20.016;2022-12-07T06:41:08;94296.56;;;1.90;100.00
54465;BME280;40374;49.480;20.016;2022-12-07T06:43:35;94315.50;;;1.99;100.00
54465;BME280;40374;49.480;20.016;2022-12-07T06:46:03;94309.91;;;1.95;100.00
54465;BME280;40374;49.480;20.016;2022-12-07T06:48:30;94305.88;;;1.93;100.00
54465;BME280;40374;49.480;20.016;2022-12-07T06:50:58;94308.06;;;1.96;100.00
54465;BME280;40374;49.480;20.016;2022-12-07T06:53:26;94305.06;;;1.92;100.00
54465;BME280;40374;49.480;20.016;2022-12-07T06:55:53;94316.25;;;1.94;100.00
54465;BME280;40374;49.480;20.016;2022-12-07T06:58:21;94313.53;;;1.89;100.00
54465;BME280;40374;49.480;20.016;2022-12-07T07:00:48;94303.78;;;1.95;100.00
54465;BME280;40374;49.480;20.016;2022-12-07T07:03:17;94309.34;;;1.93;100.00
54465;BME280;40374;49.480;20.016;2022-12-07T07:05:44;94320.09;;;2.03;100.00
54465;BME280;40374;49.480;20.016;2022-12-07T07:08:13;94316.88;;;2.18;100.00
54465;BME280;40374;49.480;20.016;2022-12-07T07:10:49;94310.22;;;1.99;100.00
54465;BME280;40374;49.480;20.016;2022-12-07T07:13:17;94324.13;;;1.89;100.00
54465;BME280;40374;49.480;20.016;2022-12-07T07:15:44;94324.13;;;1.89;100.00
54465;BME280;40374;49.480;20.016;2022-12-07T07:18:12;94323.06;;;1.90;100.00
54465;BME280;40374;49.480;20.016;2022-12-07T07:20:39;94309.66;;;1.97;100.00
54465;BME280;40374;49.480;20.016;2022-12-07T07:23:07;94319.53;;;1.85;100.00
54465;BME280;40374;49.480;20.016;2022-12-07T07:25:34;94323.47;;;1.82;100.00
54465;BME280;40374;49.480;20.016;2022-12-07T07:28:02;94315.63;;;1.70;100.00
54465;BME280;40374;49.480;20.016;2022-12-07T07:30:29;94326.06;;;1.77;100.00
54465;BME280;40374;49.480;20.016;2022-12-07T07:32:58;94327.91;;;1.93;100.00
54465;BME280;40374;49.480;20.016;2022-12-07T07:35:27;94315.13;;;1.90;100.00
54465;BME280;40374;49.480;20.016;2022-12-07T07:37:55;94316.47;;;1.76;100.00
54465;BME280;40374;49.480;20.016;2022-12-07T07:40:23;94327.34;;;1.91;100.00
54465;BME280;40374;49.480;20.016;2022-12-07T07:42:51;94337.47;;;1.94;100.00
54465;BME280;40374;49.480;20.016;2022-12-07T07:45:20;94340.13;;;1.94;100.00
54465;BME280;40374;49.480;20.016;2022-12-07T07:47:49;94326.69;;;1.84;100.00
54465;BME280;40374;49.480;20.016;2022-12-07T07:50:17;94327.91;;;1.93;100.00
54465;BME280;40374;49.480;20.016;2022-12-07T07:52:45;94336.34;;;2.07;100.00
54465;BME280;40374;49.480;20.016;2022-12-07T07:55:12;94332.56;;;1.86;100.00
54465;BME280;40374;49.480;20.016;2022-12-07T07:57:40;94326.06;;;1.94;100.00
54465;BME280;40374;49.480;20.016;2022-12-07T08:00:10;94324.53;;;2.15;100.00
54465;BME280;40374;49.480;20.016;2022-12-07T08:02:39;94335.94;;;1.98;100.00
54465;BME280;40374;49.480;20.016;2022-12-07T08:05:07;94336.97;;;1.97;100.00
54465;BME280;40374;49.480;20.016;2022-12-07T08:07:34;94345.09;;;1.91;100.00
54465;BME280;40374;49.480;20.016;2022-12-07T08:10:02;94344.22;;;1.85;100.00
54465;BME280;40374;49.480;20.016;2022-12-07T08:12:31;94339.72;;;1.86;100.00
54465;BME280;40374;49.480;20.016;2022-12-07T08:14:58;94323.06;;;1.73;100.00
54465;BME280;40374;49.480;20.016;2022-12-07T08:17:25;94342.81;;;1.82;100.00
54465;BME280;40374;49.480;20.016;2022-12-07T08:19:53;94341.81;;;1.83;100.00
54465;BME280;40374;49.480;20.016;2022-12-07T08:22:20;94336.97;;;1.97;100.00
54465;BME280;40374;49.480;20.016;2022-12-07T08:24:47;94345.34;;;1.89;100.00
54465;BME280;40374;49.480;20.016;2022-12-07T08:27:15;94341.25;;;1.81;100.00
54465;BME280;40374;49.480;20.016;2022-12-07T08:29:42;94355.53;;;1.80;100.00
54465;BME280;40374;49.480;20.016;2022-12-07T08:32:10;94333.13;;;1.88;100.00
54465;BME280;40374;49.480;20.016;2022-12-07T08:34:37;94348.41;;;1.81;100.00
54465;BME280;40374;49.480;20.016;2022-12-07T08:37:05;94354.72;;;1.97;100.00
54465;BME280;40374;49.480;20.016;2022-12-07T08:39:32;94348.22;;;1.71;100.00
54465;BME280;40374;49.480;20.016;2022-12-07T08:42:00;94348.41;;;1.81;100.00
54465;BME280;40374;49.480;20.016;2022-12-07T08:44:27;94366.84;;;1.76;100.00
54465;BME280;40374;49.480;20.016;2022-12-07T08:46:59;94366.56;;;2.06;100.00
54465;BME280;40374;49.480;20.016;2022-12-07T08:49:36;94366.88;;;2.10;100.00
54465;BME280;40374;49.480;20.016;2022-12-07T08:52:05;94349.75;;;1.67;100.00
54465;BME280;40374;49.480;20.016;2022-12-07T08:54:34;94363.66;;;1.91;100.00
54465;BME280;40374;49.480;20.016;2022-12-07T08:57:04;94368.09;;;1.85;100.00
54465;BME280;40374;49.480;20.016;2022-12-07T08:59:35;94367.34;;;1.90;100.00
54465;BME280;40374;49.480;20.016;2022-12-07T09:02:04;94366.69;;;1.82;100.00
54465;BME280;40374;49.480;20.016;2022-12-07T09:04:31;94357.00;;;1.42;100.00
54465;BME280;40374;49.480;20.016;2022-12-07T09:06:59;94379.34;;;1.63;100.00
54465;BME280;40374;49.480;20.016;2022-12-07T09:09:27;94368.69;;;1.58;100.00
54465;BME280;40374;49.480;20.016;2022-12-07T09:11:54;94370.94;;;1.67;100.00
54465;BME280;40374;49.480;20.016;2022-12-07T09:14:22;94375.28;;;1.73;100.00
